createdAt,value
2018-06-24T00:00:02.391Z,9.20
2018-06-24T00:02:32.558Z,9.20
2018-06-24T00:05:02.667Z,9.20
2018-06-24T00:07:32.944Z,9.10
2018-06-24T00:10:03.042Z,9.10
2018-06-24T00:12:33.160Z,9.10
2018-06-24T00:15:03.289Z,9.10
2018-06-24T00:17:33.457Z,9.10
2018-06-24T00:20:03.598Z,9.10
2018-06-24T00:25:03.343Z,9.00
2018-06-24T00:27:33.551Z,9.00
2018-06-24T00:30:03.683Z,9.00
2018-06-24T00:32:33.762Z,9.00
2018-06-24T00:35:03.894Z,8.90
2018-06-24T00:37:33.953Z,8.90
2018-06-24T00:42:33.886Z,8.90
2018-06-24T00:45:04.045Z,8.90
2018-06-24T00:47:34.100Z,8.90
2018-06-24T00:50:04.246Z,8.90
2018-06-24T00:52:34.332Z,8.90
2018-06-24T00:55:04.415Z,8.80
2018-06-24T00:57:34.454Z,8.90
2018-06-24T01:00:17.695Z,8.90
2018-06-24T01:02:47.738Z,8.80
2018-06-24T01:05:17.830Z,8.80
2018-06-24T01:07:47.886Z,8.80
2018-06-24T01:10:18.009Z,8.80
2018-06-24T01:12:48.087Z,8.80
2018-06-24T01:15:18.207Z,8.80
2018-06-24T01:17:48.272Z,8.80
2018-06-24T01:20:18.336Z,8.80
2018-06-24T01:22:48.417Z,8.80
2018-06-24T01:25:18.571Z,8.80
2018-06-24T01:30:18.292Z,8.90
2018-06-24T01:32:48.345Z,8.80
2018-06-24T01:35:18.446Z,8.80
2018-06-24T01:37:48.521Z,8.80
2018-06-24T01:40:18.594Z,8.90
2018-06-24T01:42:48.681Z,8.90
2018-06-24T01:45:18.758Z,8.80
2018-06-24T01:47:48.881Z,8.70
2018-06-24T01:50:18.970Z,8.70
2018-06-24T01:52:49.023Z,8.70
2018-06-24T01:55:19.166Z,8.80
2018-06-24T01:57:49.203Z,8.70
2018-06-24T02:00:19.258Z,8.60
2018-06-24T02:02:49.299Z,8.60
2018-06-24T02:07:49.154Z,8.50
2018-06-24T02:10:19.240Z,8.50
2018-06-24T02:12:49.275Z,8.50
2018-06-24T02:15:19.366Z,8.40
2018-06-24T02:17:49.372Z,8.40
2018-06-24T02:20:19.427Z,8.30
2018-06-24T02:22:49.476Z,8.40
2018-06-24T02:25:19.558Z,8.30
2018-06-24T02:27:49.573Z,8.20
2018-06-24T02:30:19.659Z,8.20
2018-06-24T02:32:49.677Z,8.10
2018-06-24T02:35:19.758Z,8.10
2018-06-24T02:37:49.807Z,8.00
2018-06-24T02:40:19.924Z,8.00
2018-06-24T02:42:49.986Z,8.00
2018-06-24T02:45:20.063Z,7.90
2018-06-24T02:50:19.802Z,7.90
2018-06-24T02:52:49.840Z,7.80
2018-06-24T02:55:19.935Z,7.80
2018-06-24T02:57:49.977Z,7.70
2018-06-24T03:00:20.194Z,7.70
2018-06-24T03:02:50.207Z,7.70
2018-06-24T03:05:20.319Z,7.60
2018-06-24T03:10:20.109Z,7.60
2018-06-24T03:12:50.486Z,7.60
2018-06-24T03:20:19.838Z,7.60
2018-06-24T03:25:19.651Z,7.50
2018-06-24T03:27:49.705Z,7.50
2018-06-24T03:30:19.789Z,7.50
2018-06-24T03:32:49.849Z,7.50
2018-06-24T03:35:19.908Z,7.50
2018-06-24T03:37:49.936Z,7.50
2018-06-24T03:40:20.015Z,7.50
2018-06-24T03:42:50.069Z,7.50
2018-06-24T03:45:20.148Z,7.50
2018-06-24T03:50:20.000Z,7.40
2018-06-24T03:52:50.141Z,7.40
2018-06-24T03:55:20.174Z,7.40
2018-06-24T03:57:50.270Z,7.40
2018-06-24T04:00:20.361Z,7.40
2018-06-24T04:02:50.438Z,7.40
2018-06-24T04:05:20.542Z,7.40
2018-06-24T04:07:50.615Z,7.40
2018-06-24T04:10:20.686Z,7.40
2018-06-24T04:12:50.783Z,7.50
2018-06-24T04:15:20.901Z,7.50
2018-06-24T04:17:51.043Z,7.50
2018-06-24T04:20:21.074Z,7.60
2018-06-24T04:22:51.167Z,7.60
2018-06-24T04:27:50.891Z,7.80
2018-06-24T04:30:20.949Z,7.80
2018-06-24T04:32:51.049Z,7.80
2018-06-24T04:35:21.120Z,7.90
2018-06-24T04:37:51.210Z,7.90
2018-06-24T04:40:21.262Z,8.00
2018-06-24T04:42:51.354Z,8.10
2018-06-24T04:45:21.370Z,8.10
2018-06-24T04:47:51.477Z,8.20
2018-06-24T04:52:51.275Z,8.30
2018-06-24T04:55:21.491Z,8.40
2018-06-24T04:57:51.589Z,8.60
2018-06-24T05:00:21.651Z,8.60
2018-06-24T05:02:52.046Z,8.80
2018-06-24T05:05:22.137Z,8.90
2018-06-24T05:10:22.096Z,9.10
2018-06-24T05:12:52.159Z,9.20
2018-06-24T05:15:22.221Z,9.40
2018-06-24T05:17:52.327Z,9.50
2018-06-24T05:20:22.394Z,9.60
2018-06-24T05:22:52.558Z,9.70
2018-06-24T05:25:22.643Z,9.80
2018-06-24T05:27:52.841Z,9.90
2018-06-24T05:32:52.555Z,10.20
2018-06-24T05:35:22.655Z,10.30
2018-06-24T05:37:52.872Z,10.50
2018-06-24T05:42:52.608Z,10.70
2018-06-24T05:45:22.742Z,10.80
2018-06-24T05:47:52.961Z,11.00
2018-06-24T05:50:23.028Z,11.10
2018-06-24T05:52:53.060Z,11.30
2018-06-24T05:55:23.180Z,11.30
2018-06-24T05:57:53.293Z,11.20
2018-06-24T06:02:53.021Z,11.40
2018-06-24T06:07:53.395Z,11.60
2018-06-24T06:10:23.545Z,11.60
2018-06-24T06:12:53.601Z,11.70
2018-06-24T06:15:23.717Z,11.80
2018-06-24T06:17:53.765Z,12.00
2018-06-24T06:25:23.181Z,12.20
2018-06-24T06:27:53.269Z,12.30
2018-06-24T06:30:23.440Z,12.50
2018-06-24T06:32:53.486Z,12.70
2018-06-24T06:35:23.549Z,12.80
2018-06-24T06:37:53.599Z,12.80
2018-06-24T06:40:23.702Z,12.90
2018-06-24T06:42:53.784Z,13.00
2018-06-24T06:45:24.154Z,13.10
2018-06-24T06:50:23.795Z,13.20
2018-06-24T06:52:53.919Z,13.20
2018-06-24T06:55:24.004Z,13.30
2018-06-24T06:57:54.097Z,13.40
2018-06-24T07:00:24.199Z,13.50
2018-06-24T07:02:54.245Z,13.70
2018-06-24T07:05:24.387Z,13.90
2018-06-24T07:07:54.692Z,13.90
2018-06-24T07:10:24.775Z,14.10
2018-06-24T07:12:55.253Z,14.20
2018-06-24T07:15:25.336Z,14.40
2018-06-24T07:17:55.374Z,14.60
2018-06-24T07:20:25.494Z,14.60
2018-06-24T07:25:25.277Z,14.30
2018-06-24T07:27:56.162Z,14.40
2018-06-24T07:30:26.321Z,14.40
2018-06-24T07:32:58.869Z,14.50
2018-06-24T07:35:29.142Z,14.50
2018-06-24T07:37:59.524Z,14.50
2018-06-24T07:40:29.734Z,14.50
2018-06-24T07:42:59.982Z,14.60
2018-06-24T07:45:30.142Z,14.80
2018-06-24T07:48:00.242Z,14.90
2018-06-24T07:50:30.367Z,15.00
2018-06-24T07:53:00.623Z,15.10
2018-06-24T07:55:32.717Z,15.10
2018-06-24T07:58:02.802Z,15.10
2018-06-24T08:00:32.908Z,15.20
2018-06-24T08:03:02.982Z,15.20
2018-06-24T08:05:33.100Z,15.30
2018-06-24T08:08:03.265Z,15.40
2018-06-24T08:10:33.374Z,15.30
2018-06-24T08:13:03.675Z,15.20
2018-06-24T08:15:33.807Z,15.20
2018-06-24T08:18:03.935Z,15.20
2018-06-24T08:20:34.051Z,15.30
2018-06-24T08:23:04.157Z,15.40
2018-06-24T08:25:34.337Z,15.60
2018-06-24T08:28:04.412Z,15.80
2018-06-24T08:30:34.514Z,16.00
2018-06-24T08:33:04.579Z,16.10
2018-06-24T08:35:34.689Z,16.20
2018-06-24T08:38:05.051Z,16.20
2018-06-24T08:40:35.255Z,16.30
2018-06-24T08:43:05.339Z,16.20
2018-06-24T08:45:35.469Z,16.10
2018-06-24T08:48:06.841Z,16.10
2018-06-24T08:50:36.983Z,16.10
2018-06-24T08:53:07.080Z,15.90
2018-06-24T08:55:37.209Z,16.00
2018-06-24T08:58:07.839Z,15.90
2018-06-24T09:00:37.987Z,16.00
2018-06-24T09:03:08.144Z,15.90
2018-06-24T09:05:38.247Z,15.90
2018-06-24T09:08:08.560Z,15.90
2018-06-24T09:10:38.646Z,15.80
2018-06-24T09:13:08.768Z,15.60
2018-06-24T09:15:38.940Z,15.70
2018-06-24T09:18:09.143Z,15.80
2018-06-24T09:20:39.219Z,16.00
2018-06-24T09:23:09.392Z,16.10
2018-06-24T09:25:39.455Z,16.20
2018-06-24T09:28:09.532Z,16.40
2018-06-24T09:30:39.629Z,16.40
2018-06-24T09:33:09.753Z,16.50
2018-06-24T09:35:39.831Z,16.30
2018-06-24T09:40:39.817Z,16.20
2018-06-24T09:43:09.973Z,16.10
2018-06-24T09:45:40.094Z,16.10
2018-06-24T09:48:10.337Z,16.20
2018-06-24T09:50:40.409Z,16.30
2018-06-24T09:53:10.536Z,16.40
2018-06-24T09:55:40.963Z,16.40
2018-06-24T09:58:11.188Z,16.30
2018-06-24T10:00:41.544Z,16.50
2018-06-24T10:03:11.830Z,16.50
2018-06-24T10:05:41.994Z,16.60
2018-06-24T10:08:12.103Z,16.60
2018-06-24T10:10:42.243Z,16.60
2018-06-24T10:13:12.411Z,16.70
2018-06-24T10:15:42.543Z,16.70
2018-06-24T10:18:12.710Z,16.80
2018-06-24T10:20:42.809Z,16.80
2018-06-24T10:23:12.924Z,16.80
2018-06-24T10:25:43.099Z,16.80
2018-06-24T10:28:13.208Z,16.80
2018-06-24T10:30:43.284Z,16.70
2018-06-24T10:33:13.382Z,16.80
2018-06-24T10:35:43.467Z,16.70
2018-06-24T10:38:13.575Z,16.80
2018-06-24T10:40:43.653Z,17.00
2018-06-24T10:43:13.772Z,17.20
2018-06-24T10:45:43.878Z,17.20
2018-06-24T10:50:44.029Z,17.40
2018-06-24T10:53:14.164Z,17.30
2018-06-24T10:55:44.497Z,17.40
2018-06-24T10:58:15.098Z,17.20
2018-06-24T11:00:45.286Z,17.30
2018-06-24T11:03:15.539Z,17.30
2018-06-24T11:05:45.974Z,17.40
2018-06-24T11:08:16.290Z,17.40
2018-06-24T11:10:46.356Z,17.50
2018-06-24T11:13:16.496Z,17.60
2018-06-24T11:15:46.608Z,17.70
2018-06-24T11:18:16.718Z,17.40
2018-06-24T11:20:46.996Z,17.60
2018-06-24T11:23:17.246Z,17.60
2018-06-24T11:25:47.329Z,17.50
2018-06-24T11:28:17.408Z,17.40
2018-06-24T11:30:47.543Z,17.60
2018-06-24T11:33:17.687Z,17.80
2018-06-24T11:35:47.795Z,17.60
2018-06-24T11:38:18.162Z,17.90
2018-06-24T11:40:48.446Z,18.10
2018-06-24T11:43:18.527Z,18.30
2018-06-24T11:45:48.639Z,18.60
2018-06-24T11:48:18.752Z,18.50
2018-06-24T11:50:49.155Z,18.50
2018-06-24T11:53:24.826Z,18.50
2018-06-24T11:55:55.267Z,18.40
2018-06-24T11:58:25.413Z,18.50
2018-06-24T12:00:55.529Z,18.50
2018-06-24T12:03:25.626Z,18.70
2018-06-24T12:05:55.736Z,18.90
2018-06-24T12:08:25.797Z,19.00
2018-06-24T12:10:56.018Z,18.80
2018-06-24T12:13:26.049Z,18.90
2018-06-24T12:15:56.107Z,18.90
2018-06-24T12:18:26.162Z,18.80
2018-06-24T12:20:56.230Z,18.70
2018-06-24T12:25:56.096Z,18.70
2018-06-24T12:28:26.148Z,18.80
2018-06-24T12:30:59.856Z,19.00
2018-06-24T12:33:29.908Z,19.20
2018-06-24T12:36:00.041Z,18.90
2018-06-24T12:40:59.906Z,19.20
2018-06-24T12:43:29.993Z,19.20
2018-06-24T12:46:00.069Z,19.20
2018-06-24T12:48:30.073Z,19.20
2018-06-24T12:51:00.322Z,19.30
2018-06-24T12:53:30.327Z,19.40
2018-06-24T12:56:00.412Z,19.50
2018-06-24T12:58:30.567Z,19.60
2018-06-24T13:01:00.698Z,19.70
2018-06-24T13:03:30.712Z,19.50
2018-06-24T13:06:00.864Z,19.50
2018-06-24T13:08:30.922Z,19.30
2018-06-24T13:11:01.048Z,19.30
2018-06-24T13:13:31.129Z,19.20
2018-06-24T13:16:01.261Z,19.20
2018-06-24T13:18:31.336Z,19.20
2018-06-24T13:21:01.766Z,19.30
2018-06-24T13:23:32.149Z,19.20
2018-06-24T13:26:02.466Z,19.10
2018-06-24T13:28:32.635Z,18.90
2018-06-24T13:31:03.280Z,18.80
2018-06-24T13:33:33.350Z,18.80
2018-06-24T13:36:03.627Z,18.70
2018-06-24T13:38:33.973Z,18.80
2018-06-24T13:41:04.167Z,18.80
2018-06-24T13:43:34.295Z,18.80
2018-06-24T13:46:04.416Z,19.00
2018-06-24T13:48:34.561Z,19.00
2018-06-24T13:51:05.286Z,19.00
2018-06-24T13:53:35.410Z,19.10
2018-06-24T13:56:05.883Z,19.20
2018-06-24T13:58:36.000Z,19.30
2018-06-24T14:01:06.168Z,19.30
2018-06-24T14:03:36.878Z,19.10
2018-06-24T14:06:07.171Z,19.20
2018-06-24T14:08:37.253Z,19.40
2018-06-24T14:13:37.132Z,19.40
2018-06-24T14:16:07.591Z,19.30
2018-06-24T14:18:37.779Z,19.50
2018-06-24T14:21:07.866Z,19.60
2018-06-24T14:26:07.681Z,19.50
2018-06-24T14:28:37.808Z,19.50
2018-06-24T14:31:08.444Z,19.50
2018-06-24T14:33:38.804Z,19.30
2018-06-24T14:36:08.978Z,19.20
2018-06-24T14:38:39.078Z,19.30
2018-06-24T14:41:09.265Z,19.30
2018-06-24T14:43:40.221Z,19.40
2018-06-24T14:46:10.349Z,19.50
2018-06-24T14:48:40.404Z,19.60
2018-06-24T14:51:10.509Z,19.70
2018-06-24T14:53:40.678Z,19.80
2018-06-24T14:56:10.861Z,19.80
2018-06-24T14:58:40.951Z,19.80
2018-06-24T15:01:11.087Z,19.90
2018-06-24T15:03:41.187Z,19.90
2018-06-24T15:06:11.324Z,19.70
2018-06-24T15:08:41.436Z,19.70
2018-06-24T15:11:11.623Z,19.70
2018-06-24T15:13:41.738Z,19.50
2018-06-24T15:16:11.867Z,19.40
2018-06-24T15:18:41.982Z,19.30
2018-06-24T15:21:12.158Z,19.30
2018-06-24T15:23:42.271Z,19.10
2018-06-24T15:26:12.366Z,18.90
2018-06-24T15:28:43.186Z,18.90
2018-06-24T15:31:13.611Z,18.80
2018-06-24T15:33:43.727Z,18.70
2018-06-24T15:36:13.969Z,18.70
2018-06-24T15:38:44.232Z,18.70
2018-06-24T15:41:14.483Z,18.80
2018-06-24T15:43:44.688Z,18.90
2018-06-24T15:48:49.141Z,18.70
2018-06-24T15:51:20.225Z,18.80
2018-06-24T15:53:50.373Z,18.70
2018-06-24T15:56:20.450Z,18.70
2018-06-24T15:58:50.552Z,18.70
2018-06-24T16:03:52.005Z,18.70
2018-06-24T16:06:23.072Z,18.70
2018-06-24T16:08:53.219Z,18.70
2018-06-24T16:11:23.290Z,18.80
2018-06-24T16:13:53.456Z,18.90
2018-06-24T16:16:23.952Z,18.80
2018-06-24T16:18:54.108Z,18.70
2018-06-24T16:21:24.178Z,18.80
2018-06-24T16:23:54.257Z,18.80
2018-06-24T16:26:24.316Z,18.90
2018-06-24T16:28:54.463Z,18.90
2018-06-24T16:31:24.539Z,18.90
2018-06-24T16:33:54.596Z,18.90
2018-06-24T16:36:24.726Z,18.80
2018-06-24T16:38:54.857Z,18.80
2018-06-24T16:41:25.010Z,18.80
2018-06-24T16:43:55.114Z,18.70
2018-06-24T16:46:25.178Z,18.60
2018-06-24T16:48:55.307Z,18.50
2018-06-24T16:51:25.448Z,18.50
2018-06-24T16:53:55.547Z,18.40
2018-06-24T16:56:25.649Z,18.30
2018-06-24T16:58:55.836Z,18.30
2018-06-24T17:01:26.718Z,18.20
2018-06-24T17:04:02.102Z,18.00
2018-06-24T17:06:33.049Z,18.00
2018-06-24T17:09:07.966Z,18.00
2018-06-24T17:11:43.155Z,17.90
2018-06-24T17:14:15.650Z,17.80
2018-06-24T17:16:45.740Z,17.80
2018-06-24T17:19:15.832Z,17.70
2018-06-24T17:21:45.862Z,17.70
2018-06-24T17:24:15.990Z,17.70
2018-06-24T17:26:46.082Z,17.60
2018-06-24T17:31:45.919Z,17.50
2018-06-24T17:34:18.171Z,17.50
2018-06-24T17:36:48.522Z,17.40
2018-06-24T17:39:18.652Z,17.40
2018-06-24T17:41:48.682Z,17.30
2018-06-24T17:44:18.886Z,17.20
2018-06-24T17:46:49.442Z,17.20
2018-06-24T17:49:19.575Z,17.10
2018-06-24T17:51:49.752Z,17.10
2018-06-24T17:54:20.664Z,17.00
2018-06-24T17:56:51.750Z,16.90
2018-06-24T17:59:21.962Z,16.90
2018-06-24T18:01:52.065Z,16.90
2018-06-24T18:06:51.860Z,16.70
2018-06-24T18:09:21.938Z,16.70
2018-06-24T18:11:52.126Z,16.60
2018-06-24T18:14:22.446Z,16.60
2018-06-24T18:16:52.638Z,16.60
2018-06-24T18:19:22.815Z,16.50
2018-06-24T18:21:52.915Z,16.50
2018-06-24T18:24:23.157Z,16.40
2018-06-24T18:26:53.249Z,16.40
2018-06-24T18:29:23.421Z,16.30
2018-06-24T18:31:53.701Z,16.20
2018-06-24T18:34:23.810Z,16.20
2018-06-24T18:36:53.962Z,16.20
2018-06-24T18:39:24.089Z,16.20
2018-06-24T18:41:54.268Z,16.10
2018-06-24T18:44:24.320Z,16.10
2018-06-24T18:46:54.499Z,16.10
2018-06-24T18:49:24.643Z,16.00
2018-06-24T18:51:54.845Z,16.00
2018-06-24T18:54:25.355Z,16.00
2018-06-24T18:59:25.214Z,16.00
2018-06-24T19:01:55.562Z,15.90
2018-06-24T19:04:25.797Z,15.90
2018-06-24T19:06:56.133Z,15.80
2018-06-24T19:09:26.250Z,15.70
2018-06-24T19:11:56.344Z,15.80
2018-06-24T19:14:27.812Z,15.80
2018-06-24T19:16:57.947Z,15.70
2018-06-24T19:19:28.038Z,15.70
2018-06-24T19:21:58.231Z,15.70
2018-06-24T19:24:28.544Z,15.60
2018-06-24T19:26:58.877Z,15.50
2018-06-24T19:29:29.036Z,15.50
2018-06-24T19:31:59.153Z,15.40
2018-06-24T19:36:59.518Z,15.40
2018-06-24T19:39:29.576Z,15.30
2018-06-24T19:41:59.701Z,15.30
2018-06-24T19:44:29.866Z,15.30
2018-06-24T19:46:59.959Z,15.20
2018-06-24T19:49:30.058Z,15.20
2018-06-24T19:52:00.260Z,15.20
2018-06-24T19:54:30.346Z,15.20
2018-06-24T19:57:00.427Z,15.10
2018-06-24T19:59:30.530Z,15.10
2018-06-24T20:02:00.643Z,15.10
2018-06-24T20:09:30.414Z,15.10
2018-06-24T20:12:00.591Z,15.10
2018-06-24T20:14:30.670Z,15.10
2018-06-24T20:17:00.772Z,15.10
2018-06-24T20:19:30.951Z,15.00
2018-06-24T20:22:02.212Z,15.10
2018-06-24T20:24:33.447Z,15.10
2018-06-24T20:27:03.577Z,15.00
2018-06-24T20:29:33.720Z,15.00
2018-06-24T20:37:03.184Z,15.00
2018-06-24T20:39:33.259Z,14.90
2018-06-24T20:42:03.284Z,14.90
2018-06-24T20:44:33.412Z,14.90
2018-06-24T20:47:03.555Z,14.90
2018-06-24T20:49:33.829Z,14.80
2018-06-24T20:52:03.907Z,14.80
2018-06-24T20:54:34.052Z,14.80
2018-06-24T20:57:04.286Z,14.80
2018-06-24T20:59:34.320Z,14.80
2018-06-24T21:02:04.453Z,14.80
2018-06-24T21:04:34.521Z,14.80
2018-06-24T21:12:03.916Z,14.70
2018-06-24T21:14:34.032Z,14.70
2018-06-24T21:17:04.295Z,14.70
2018-06-24T21:19:34.305Z,14.60
2018-06-24T21:22:04.379Z,14.50
2018-06-24T21:27:12.352Z,14.60
2018-06-24T21:29:42.395Z,14.50
2018-06-24T21:32:12.533Z,14.50
2018-06-24T21:34:42.528Z,14.50
2018-06-24T21:37:12.740Z,14.50
2018-06-24T21:39:42.776Z,14.40
2018-06-24T21:42:12.812Z,14.40
2018-06-24T21:44:42.942Z,14.30
2018-06-24T21:47:13.179Z,14.30
2018-06-24T21:49:43.298Z,14.30
2018-06-24T21:52:13.319Z,14.20
2018-06-24T21:54:43.391Z,14.20
2018-06-24T21:57:13.451Z,14.20
2018-06-24T21:59:44.054Z,14.20
2018-06-24T22:02:14.682Z,14.20
2018-06-24T22:04:44.753Z,14.20
2018-06-24T22:07:14.816Z,14.00
2018-06-24T22:09:44.917Z,14.10
2018-06-24T22:12:14.991Z,14.00
2018-06-24T22:14:45.072Z,14.10
2018-06-24T22:17:15.346Z,14.00
2018-06-24T22:19:45.434Z,13.90
2018-06-24T22:22:15.544Z,14.00
2018-06-24T22:24:45.586Z,13.90
2018-06-24T22:27:15.691Z,13.90
2018-06-24T22:29:45.746Z,13.90
2018-06-24T22:32:15.847Z,13.90
2018-06-24T22:34:45.930Z,13.90
2018-06-24T22:39:45.669Z,13.80
2018-06-24T22:42:15.819Z,13.80
2018-06-24T22:44:45.854Z,13.80
2018-06-24T22:47:15.884Z,13.80
2018-06-24T22:49:45.936Z,13.80
2018-06-24T22:52:16.010Z,13.70
2018-06-24T22:54:46.067Z,13.70
2018-06-24T22:57:16.083Z,13.70
2018-06-24T23:00:17.900Z,13.70
2018-06-24T23:02:47.988Z,13.70
2018-06-24T23:05:18.069Z,13.60
2018-06-24T23:07:48.152Z,13.60
2018-06-24T23:10:18.270Z,13.60
2018-06-24T23:12:48.337Z,13.60
2018-06-24T23:15:18.441Z,13.70
2018-06-24T23:17:48.537Z,13.60
2018-06-24T23:20:18.577Z,13.70
2018-06-24T23:22:48.635Z,13.60
2018-06-24T23:25:18.709Z,13.50
2018-06-24T23:27:48.817Z,13.50
2018-06-24T23:30:18.875Z,13.50
2018-06-24T23:32:48.875Z,13.40
2018-06-24T23:35:18.986Z,13.40
2018-06-24T23:37:49.058Z,13.40
2018-06-24T23:40:19.164Z,13.30
2018-06-24T23:42:49.184Z,13.30
2018-06-24T23:45:19.255Z,13.30
2018-06-24T23:47:49.270Z,13.30
2018-06-24T23:50:19.335Z,13.20
2018-06-24T23:52:49.348Z,13.20
2018-06-24T23:55:19.421Z,13.10
2018-06-24T23:57:49.403Z,13.20
